sensor_id;sensor_type;location;lat;lon;timestamp;P1;durP1;ratioP1;P2;durP2;ratioP2
51382;SDS011;37475;43.358;1.248;2022-08-19T00:01:44;11.85;;;5.20;;
51382;SDS011;37475;43.358;1.248;2022-08-19T00:04:14;13.15;;;5.53;;
51382;SDS011;37475;43.358;1.248;2022-08-19T00:06:42;13.88;;;5.88;;
51382;SDS011;37475;43.358;1.248;2022-08-19T00:09:11;10.55;;;5.20;;
51382;SDS011;37475;43.358;1.248;2022-08-19T00:11:39;12.52;;;5.53;;
51382;SDS011;37475;43.358;1.248;2022-08-19T00:14:06;14.00;;;5.55;;
51382;SDS011;37475;43.358;1.248;2022-08-19T00:16:35;12.75;;;5.72;;
51382;SDS011;37475;43.358;1.248;2022-08-19T00:19:03;9.30;;;4.95;;
51382;SDS011;37475;43.358;1.248;2022-08-19T00:21:30;12.23;;;6.03;;
51382;SDS011;37475;43.358;1.248;2022-08-19T00:23:56;11.65;;;5.45;;
51382;SDS011;37475;43.358;1.248;2022-08-19T00:26:23;11.40;;;5.68;;
51382;SDS011;37475;43.358;1.248;2022-08-19T00:28:51;13.52;;;5.95;;
51382;SDS011;37475;43.358;1.248;2022-08-19T00:31:17;9.23;;;5.45;;
51382;SDS011;37475;43.358;1.248;2022-08-19T00:33:43;11.90;;;6.25;;
51382;SDS011;37475;43.358;1.248;2022-08-19T00:36:09;10.38;;;5.97;;
51382;SDS011;37475;43.358;1.248;2022-08-19T00:38:37;16.23;;;6.93;;
51382;SDS011;37475;43.358;1.248;2022-08-19T00:41:08;12.85;;;6.60;;
51382;SDS011;37475;43.358;1.248;2022-08-19T00:43:37;10.52;;;6.13;;
51382;SDS011;37475;43.358;1.248;2022-08-19T00:46:04;13.82;;;6.60;;
51382;SDS011;37475;43.358;1.248;2022-08-19T00:48:30;10.63;;;6.03;;
51382;SDS011;37475;43.358;1.248;2022-08-19T00:50:58;15.98;;;6.10;;
51382;SDS011;37475;43.358;1.248;2022-08-19T00:53:26;13.82;;;7.10;;
51382;SDS011;37475;43.358;1.248;2022-08-19T00:55:55;11.77;;;6.40;;
51382;SDS011;37475;43.358;1.248;2022-08-19T00:58:25;11.98;;;6.55;;
51382;SDS011;37475;43.358;1.248;2022-08-19T01:00:54;13.52;;;6.18;;
51382;SDS011;37475;43.358;1.248;2022-08-19T01:03:21;13.80;;;6.65;;
51382;SDS011;37475;43.358;1.248;2022-08-19T01:05:48;12.80;;;6.13;;
51382;SDS011;37475;43.358;1.248;2022-08-19T01:08:16;11.23;;;6.25;;
51382;SDS011;37475;43.358;1.248;2022-08-19T01:10:49;12.82;;;6.18;;
51382;SDS011;37475;43.358;1.248;2022-08-19T01:13:22;11.60;;;6.10;;
51382;SDS011;37475;43.358;1.248;2022-08-19T01:15:54;11.85;;;5.97;;
51382;SDS011;37475;43.358;1.248;2022-08-19T01:18:28;15.68;;;6.47;;
51382;SDS011;37475;43.358;1.248;2022-08-19T01:20:56;11.43;;;6.05;;
51382;SDS011;37475;43.358;1.248;2022-08-19T01:23:27;12.82;;;5.78;;
51382;SDS011;37475;43.358;1.248;2022-08-19T01:26:07;14.20;;;6.25;;
51382;SDS011;37475;43.358;1.248;2022-08-19T01:28:46;12.10;;;6.30;;
51382;SDS011;37475;43.358;1.248;2022-08-19T01:31:16;14.10;;;6.50;;
51382;SDS011;37475;43.358;1.248;2022-08-19T01:33:46;12.60;;;6.15;;
51382;SDS011;37475;43.358;1.248;2022-08-19T01:36:15;11.88;;;6.78;;
51382;SDS011;37475;43.358;1.248;2022-08-19T01:38:51;13.77;;;5.90;;
51382;SDS011;37475;43.358;1.248;2022-08-19T01:41:18;10.73;;;5.43;;
51382;SDS011;37475;43.358;1.248;2022-08-19T01:43:44;14.77;;;6.68;;
51382;SDS011;37475;43.358;1.248;2022-08-19T01:46:10;10.95;;;6.10;;
51382;SDS011;37475;43.358;1.248;2022-08-19T01:48:38;13.15;;;6.18;;
51382;SDS011;37475;43.358;1.248;2022-08-19T01:51:07;13.23;;;6.20;;
51382;SDS011;37475;43.358;1.248;2022-08-19T01:53:33;19.48;;;6.30;;
51382;SDS011;37475;43.358;1.248;2022-08-19T01:56:01;11.38;;;6.07;;
51382;SDS011;37475;43.358;1.248;2022-08-19T01:58:32;10.00;;;5.70;;
51382;SDS011;37475;43.358;1.248;2022-08-19T02:01:07;12.10;;;6.28;;
51382;SDS011;37475;43.358;1.248;2022-08-19T02:03:33;13.10;;;6.10;;
51382;SDS011;37475;43.358;1.248;2022-08-19T02:06:00;14.35;;;5.80;;
51382;SDS011;37475;43.358;1.248;2022-08-19T02:08:28;11.73;;;5.82;;
51382;SDS011;37475;43.358;1.248;2022-08-19T02:10:56;14.80;;;6.57;;
51382;SDS011;37475;43.358;1.248;2022-08-19T02:13:25;16.33;;;6.80;;
51382;SDS011;37475;43.358;1.248;2022-08-19T02:15:51;11.50;;;7.10;;
51382;SDS011;37475;43.358;1.248;2022-08-19T02:18:17;14.32;;;6.35;;
51382;SDS011;37475;43.358;1.248;2022-08-19T02:20:43;14.75;;;7.07;;
51382;SDS011;37475;43.358;1.248;2022-08-19T02:23:11;17.42;;;6.68;;
51382;SDS011;37475;43.358;1.248;2022-08-19T02:25:39;14.15;;;6.20;;
51382;SDS011;37475;43.358;1.248;2022-08-19T02:28:05;17.90;;;6.53;;
51382;SDS011;37475;43.358;1.248;2022-08-19T02:30:31;14.15;;;7.18;;
51382;SDS011;37475;43.358;1.248;2022-08-19T02:32:57;14.07;;;7.13;;
51382;SDS011;37475;43.358;1.248;2022-08-19T02:35:24;14.38;;;6.47;;
51382;SDS011;37475;43.358;1.248;2022-08-19T02:37:50;14.60;;;6.50;;
51382;SDS011;37475;43.358;1.248;2022-08-19T02:40:35;14.90;;;6.40;;
51382;SDS011;37475;43.358;1.248;2022-08-19T02:43:05;12.85;;;6.40;;
51382;SDS011;37475;43.358;1.248;2022-08-19T02:45:36;12.38;;;6.75;;
51382;SDS011;37475;43.358;1.248;2022-08-19T02:48:05;12.63;;;6.00;;
51382;SDS011;37475;43.358;1.248;2022-08-19T02:50:31;14.68;;;6.55;;
51382;SDS011;37475;43.358;1.248;2022-08-19T02:52:57;13.88;;;6.57;;
51382;SDS011;37475;43.358;1.248;2022-08-19T02:55:23;10.43;;;6.32;;
51382;SDS011;37475;43.358;1.248;2022-08-19T02:57:49;12.10;;;5.93;;
51382;SDS011;37475;43.358;1.248;2022-08-19T03:00:15;9.75;;;6.00;;
51382;SDS011;37475;43.358;1.248;2022-08-19T03:02:42;12.50;;;5.85;;
51382;SDS011;37475;43.358;1.248;2022-08-19T03:05:08;11.32;;;5.88;;
51382;SDS011;37475;43.358;1.248;2022-08-19T03:07:35;13.48;;;6.35;;
51382;SDS011;37475;43.358;1.248;2022-08-19T03:10:02;11.07;;;6.20;;
51382;SDS011;37475;43.358;1.248;2022-08-19T03:12:29;9.50;;;5.55;;
51382;SDS011;37475;43.358;1.248;2022-08-19T03:14:55;15.57;;;7.05;;
51382;SDS011;37475;43.358;1.248;2022-08-19T03:17:21;10.65;;;5.90;;
51382;SDS011;37475;43.358;1.248;2022-08-19T03:19:48;11.13;;;5.63;;
51382;SDS011;37475;43.358;1.248;2022-08-19T03:22:14;11.02;;;5.90;;
51382;SDS011;37475;43.358;1.248;2022-08-19T03:24:39;15.40;;;6.38;;
51382;SDS011;37475;43.358;1.248;2022-08-19T03:27:05;18.25;;;6.30;;
51382;SDS011;37475;43.358;1.248;2022-08-19T03:29:31;15.55;;;6.15;;
51382;SDS011;37475;43.358;1.248;2022-08-19T03:32:03;11.43;;;6.30;;
51382;SDS011;37475;43.358;1.248;2022-08-19T03:34:30;11.90;;;5.88;;
51382;SDS011;37475;43.358;1.248;2022-08-19T03:36:59;17.35;;;6.35;;
51382;SDS011;37475;43.358;1.248;2022-08-19T03:39:33;14.50;;;6.40;;
51382;SDS011;37475;43.358;1.248;2022-08-19T03:42:02;10.60;;;6.20;;
51382;SDS011;37475;43.358;1.248;2022-08-19T03:44:29;11.73;;;5.65;;
51382;SDS011;37475;43.358;1.248;2022-08-19T03:46:56;14.80;;;6.50;;
51382;SDS011;37475;43.358;1.248;2022-08-19T03:49:25;9.70;;;5.95;;
51382;SDS011;37475;43.358;1.248;2022-08-19T03:51:54;17.50;;;6.57;;
51382;SDS011;37475;43.358;1.248;2022-08-19T03:54:23;10.43;;;6.03;;
51382;SDS011;37475;43.358;1.248;2022-08-19T03:56:51;13.50;;;5.80;;
51382;SDS011;37475;43.358;1.248;2022-08-19T03:59:21;13.30;;;6.05;;
51382;SDS011;37475;43.358;1.248;2022-08-19T04:02:00;11.73;;;6.18;;
51382;SDS011;37475;43.358;1.248;2022-08-19T04:04:32;9.15;;;5.50;;
51382;SDS011;37475;43.358;1.248;2022-08-19T04:06:57;11.52;;;5.65;;
51382;SDS011;37475;43.358;1.248;2022-08-19T04:09:23;16.73;;;5.93;;
51382;SDS011;37475;43.358;1.248;2022-08-19T04:11:50;13.23;;;5.47;;
51382;SDS011;37475;43.358;1.248;2022-08-19T04:14:20;9.88;;;4.82;;
51382;SDS011;37475;43.358;1.248;2022-08-19T04:16:49;15.48;;;6.13;;
51382;SDS011;37475;43.358;1.248;2022-08-19T04:19:16;11.15;;;5.47;;
51382;SDS011;37475;43.358;1.248;2022-08-19T04:21:44;11.98;;;5.82;;
51382;SDS011;37475;43.358;1.248;2022-08-19T04:24:13;11.95;;;5.75;;
51382;SDS011;37475;43.358;1.248;2022-08-19T04:26:40;13.68;;;5.78;;
51382;SDS011;37475;43.358;1.248;2022-08-19T04:29:07;15.93;;;6.25;;
51382;SDS011;37475;43.358;1.248;2022-08-19T04:31:36;10.65;;;5.82;;
51382;SDS011;37475;43.358;1.248;2022-08-19T04:34:06;11.82;;;5.43;;
51382;SDS011;37475;43.358;1.248;2022-08-19T04:36:36;12.90;;;5.65;;
51382;SDS011;37475;43.358;1.248;2022-08-19T04:39:10;14.25;;;5.35;;
51382;SDS011;37475;43.358;1.248;2022-08-19T04:41:42;12.25;;;5.68;;
51382;SDS011;37475;43.358;1.248;2022-08-19T04:44:27;12.15;;;5.65;;
51382;SDS011;37475;43.358;1.248;2022-08-19T04:46:56;14.30;;;5.68;;
51382;SDS011;37475;43.358;1.248;2022-08-19T04:49:22;12.60;;;5.40;;
51382;SDS011;37475;43.358;1.248;2022-08-19T04:51:50;16.40;;;5.72;;
51382;SDS011;37475;43.358;1.248;2022-08-19T04:54:19;14.48;;;5.38;;
51382;SDS011;37475;43.358;1.248;2022-08-19T04:56:48;14.02;;;5.90;;
51382;SDS011;37475;43.358;1.248;2022-08-19T04:59:15;15.52;;;6.13;;
51382;SDS011;37475;43.358;1.248;2022-08-19T05:01:43;14.52;;;5.15;;
51382;SDS011;37475;43.358;1.248;2022-08-19T05:04:15;13.73;;;5.70;;
51382;SDS011;37475;43.358;1.248;2022-08-19T05:06:48;10.38;;;5.68;;
51382;SDS011;37475;43.358;1.248;2022-08-19T05:09:17;10.13;;;5.32;;
51382;SDS011;37475;43.358;1.248;2022-08-19T05:11:43;8.77;;;5.50;;
51382;SDS011;37475;43.358;1.248;2022-08-19T05:14:09;13.07;;;5.55;;
51382;SDS011;37475;43.358;1.248;2022-08-19T05:16:39;11.98;;;5.57;;
51382;SDS011;37475;43.358;1.248;2022-08-19T05:19:06;10.40;;;5.60;;
51382;SDS011;37475;43.358;1.248;2022-08-19T05:21:51;9.70;;;5.60;;
51382;SDS011;37475;43.358;1.248;2022-08-19T05:24:35;10.45;;;5.93;;
51382;SDS011;37475;43.358;1.248;2022-08-19T05:27:01;11.63;;;6.57;;
51382;SDS011;37475;43.358;1.248;2022-08-19T05:29:30;10.98;;;5.30;;
51382;SDS011;37475;43.358;1.248;2022-08-19T05:31:59;11.05;;;5.78;;
51382;SDS011;37475;43.358;1.248;2022-08-19T05:34:27;14.38;;;5.65;;
51382;SDS011;37475;43.358;1.248;2022-08-19T05:36:54;15.48;;;5.30;;
51382;SDS011;37475;43.358;1.248;2022-08-19T05:39:23;11.23;;;5.40;;
51382;SDS011;37475;43.358;1.248;2022-08-19T05:41:58;12.40;;;5.63;;
51382;SDS011;37475;43.358;1.248;2022-08-19T05:44:32;14.23;;;5.38;;
51382;SDS011;37475;43.358;1.248;2022-08-19T05:47:03;13.30;;;5.20;;
51382;SDS011;37475;43.358;1.248;2022-08-19T05:49:31;10.23;;;4.53;;
51382;SDS011;37475;43.358;1.248;2022-08-19T05:51:58;13.27;;;5.95;;
51382;SDS011;37475;43.358;1.248;2022-08-19T05:54:29;13.35;;;4.80;;
51382;SDS011;37475;43.358;1.248;2022-08-19T05:56:56;11.95;;;5.15;;
51382;SDS011;37475;43.358;1.248;2022-08-19T05:59:22;10.73;;;4.93;;
51382;SDS011;37475;43.358;1.248;2022-08-19T06:01:49;12.82;;;5.57;;
51382;SDS011;37475;43.358;1.248;2022-08-19T06:04:17;9.70;;;4.55;;
51382;SDS011;37475;43.358;1.248;2022-08-19T06:06:48;11.70;;;5.05;;
51382;SDS011;37475;43.358;1.248;2022-08-19T06:09:16;11.43;;;5.00;;
51382;SDS011;37475;43.358;1.248;2022-08-19T06:11:45;14.00;;;5.50;;
51382;SDS011;37475;43.358;1.248;2022-08-19T06:14:17;9.13;;;4.45;;
51382;SDS011;37475;43.358;1.248;2022-08-19T06:16:49;8.50;;;4.75;;
51382;SDS011;37475;43.358;1.248;2022-08-19T06:19:18;15.18;;;5.65;;
51382;SDS011;37475;43.358;1.248;2022-08-19T06:21:47;10.30;;;4.60;;
51382;SDS011;37475;43.358;1.248;2022-08-19T06:24:17;9.48;;;4.78;;
51382;SDS011;37475;43.358;1.248;2022-08-19T06:26:48;11.15;;;5.13;;
51382;SDS011;37475;43.358;1.248;2022-08-19T06:29:16;15.05;;;4.70;;
51382;SDS011;37475;43.358;1.248;2022-08-19T06:31:50;10.90;;;4.15;;
51382;SDS011;37475;43.358;1.248;2022-08-19T06:34:19;12.82;;;4.38;;
51382;SDS011;37475;43.358;1.248;2022-08-19T06:36:49;8.35;;;3.75;;
51382;SDS011;37475;43.358;1.248;2022-08-19T06:39:18;8.15;;;4.25;;
51382;SDS011;37475;43.358;1.248;2022-08-19T06:41:54;8.27;;;3.60;;
51382;SDS011;37475;43.358;1.248;2022-08-19T06:44:25;7.50;;;3.42;;
51382;SDS011;37475;43.358;1.248;2022-08-19T06:46:54;10.55;;;3.20;;
51382;SDS011;37475;43.358;1.248;2022-08-19T06:49:21;6.80;;;3.20;;
51382;SDS011;37475;43.358;1.248;2022-08-19T06:51:48;6.65;;;2.90;;
51382;SDS011;37475;43.358;1.248;2022-08-19T06:54:15;9.60;;;2.85;;
51382;SDS011;37475;43.358;1.248;2022-08-19T06:56:43;7.82;;;3.40;;
51382;SDS011;37475;43.358;1.248;2022-08-19T06:59:11;6.75;;;3.03;;
51382;SDS011;37475;43.358;1.248;2022-08-19T07:01:41;8.35;;;2.78;;
51382;SDS011;37475;43.358;1.248;2022-08-19T07:04:20;7.28;;;3.38;;
51382;SDS011;37475;43.358;1.248;2022-08-19T07:06:56;8.82;;;3.35;;
51382;SDS011;37475;43.358;1.248;2022-08-19T07:09:34;6.70;;;3.20;;
51382;SDS011;37475;43.358;1.248;2022-08-19T07:12:04;6.68;;;3.10;;
51382;SDS011;37475;43.358;1.248;2022-08-19T07:14:33;7.45;;;3.25;;
51382;SDS011;37475;43.358;1.248;2022-08-19T07:17:02;6.68;;;3.45;;
51382;SDS011;37475;43.358;1.248;2022-08-19T07:19:31;6.65;;;3.50;;
51382;SDS011;37475;43.358;1.248;2022-08-19T07:21:57;8.13;;;4.00;;
51382;SDS011;37475;43.358;1.248;2022-08-19T07:24:26;10.32;;;3.60;;
51382;SDS011;37475;43.358;1.248;2022-08-19T07:26:53;7.75;;;3.80;;
51382;SDS011;37475;43.358;1.248;2022-08-19T07:31:54;11.77;;;4.05;;
51382;SDS011;37475;43.358;1.248;2022-08-19T07:34:21;11.60;;;3.90;;
51382;SDS011;37475;43.358;1.248;2022-08-19T07:36:48;11.02;;;3.80;;
51382;SDS011;37475;43.358;1.248;2022-08-19T07:39:37;6.90;;;3.67;;
51382;SDS011;37475;43.358;1.248;2022-08-19T07:42:04;10.48;;;3.80;;
51382;SDS011;37475;43.358;1.248;2022-08-19T07:44:35;7.68;;;3.55;;
51382;SDS011;37475;43.358;1.248;2022-08-19T07:47:02;8.68;;;4.07;;
51382;SDS011;37475;43.358;1.248;2022-08-19T07:49:29;7.65;;;3.47;;
51382;SDS011;37475;43.358;1.248;2022-08-19T07:51:56;10.05;;;4.13;;
51382;SDS011;37475;43.358;1.248;2022-08-19T07:54:32;10.40;;;3.83;;
51382;SDS011;37475;43.358;1.248;2022-08-19T07:57:02;6.72;;;3.30;;
51382;SDS011;37475;43.358;1.248;2022-08-19T07:59:30;6.90;;;3.22;;
51382;SDS011;37475;43.358;1.248;2022-08-19T08:01:56;8.60;;;3.10;;
51382;SDS011;37475;43.358;1.248;2022-08-19T08:04:25;8.77;;;3.33;;
51382;SDS011;37475;43.358;1.248;2022-08-19T08:07:11;11.05;;;3.22;;
51382;SDS011;37475;43.358;1.248;2022-08-19T08:09:56;6.03;;;3.10;;
51382;SDS011;37475;43.358;1.248;2022-08-19T08:12:23;6.38;;;3.10;;
51382;SDS011;37475;43.358;1.248;2022-08-19T08:14:59;7.28;;;2.88;;
51382;SDS011;37475;43.358;1.248;2022-08-19T08:17:28;7.95;;;3.20;;
51382;SDS011;37475;43.358;1.248;2022-08-19T08:19:55;8.63;;;3.28;;
51382;SDS011;37475;43.358;1.248;2022-08-19T08:22:22;9.90;;;3.53;;
51382;SDS011;37475;43.358;1.248;2022-08-19T08:25:09;10.57;;;3.47;;
51382;SDS011;37475;43.358;1.248;2022-08-19T08:27:42;7.70;;;3.10;;
51382;SDS011;37475;43.358;1.248;2022-08-19T08:30:10;6.10;;;2.63;;
51382;SDS011;37475;43.358;1.248;2022-08-19T08:32:47;5.65;;;2.95;;
51382;SDS011;37475;43.358;1.248;2022-08-19T08:35:14;9.43;;;3.42;;
51382;SDS011;37475;43.358;1.248;2022-08-19T08:37:45;7.88;;;3.13;;
51382;SDS011;37475;43.358;1.248;2022-08-19T08:43:30;9.38;;;3.08;;
51382;SDS011;37475;43.358;1.248;2022-08-19T08:46:17;8.07;;;2.80;;
51382;SDS011;37475;43.358;1.248;2022-08-19T08:49:24;9.05;;;3.30;;
51382;SDS011;37475;43.358;1.248;2022-08-19T08:52:19;4.82;;;2.58;;
51382;SDS011;37475;43.358;1.248;2022-08-19T08:54:57;5.50;;;2.75;;
51382;SDS011;37475;43.358;1.248;2022-08-19T08:57:27;6.45;;;2.50;;
51382;SDS011;37475;43.358;1.248;2022-08-19T09:00:00;6.20;;;2.58;;
51382;SDS011;37475;43.358;1.248;2022-08-19T09:02:31;6.15;;;2.35;;
51382;SDS011;37475;43.358;1.248;2022-08-19T09:04:57;7.32;;;2.67;;
51382;SDS011;37475;43.358;1.248;2022-08-19T09:10:09;4.78;;;2.55;;
51382;SDS011;37475;43.358;1.248;2022-08-19T09:13:04;10.52;;;2.67;;
51382;SDS011;37475;43.358;1.248;2022-08-19T09:15:43;5.68;;;2.30;;
51382;SDS011;37475;43.358;1.248;2022-08-19T09:18:15;5.78;;;2.33;;
51382;SDS011;37475;43.358;1.248;2022-08-19T09:20:44;5.40;;;2.30;;
51382;SDS011;37475;43.358;1.248;2022-08-19T09:23:12;6.50;;;2.15;;
51382;SDS011;37475;43.358;1.248;2022-08-19T09:25:39;6.38;;;2.55;;
51382;SDS011;37475;43.358;1.248;2022-08-19T09:28:05;6.10;;;2.38;;
51382;SDS011;37475;43.358;1.248;2022-08-19T09:30:33;3.55;;;2.00;;
51382;SDS011;37475;43.358;1.248;2022-08-19T09:33:05;6.97;;;2.38;;
51382;SDS011;37475;43.358;1.248;2022-08-19T09:35:31;4.30;;;1.92;;
51382;SDS011;37475;43.358;1.248;2022-08-19T09:37:58;5.70;;;2.20;;
51382;SDS011;37475;43.358;1.248;2022-08-19T09:40:26;5.53;;;2.10;;
51382;SDS011;37475;43.358;1.248;2022-08-19T09:42:53;4.47;;;2.05;;
51382;SDS011;37475;43.358;1.248;2022-08-19T09:45:20;4.40;;;2.28;;
51382;SDS011;37475;43.358;1.248;2022-08-19T09:47:47;3.75;;;2.20;;
51382;SDS011;37475;43.358;1.248;2022-08-19T09:50:15;5.38;;;2.05;;
51382;SDS011;37475;43.358;1.248;2022-08-19T09:52:43;4.38;;;2.40;;
51382;SDS011;37475;43.358;1.248;2022-08-19T09:55:10;4.95;;;2.10;;
51382;SDS011;37475;43.358;1.248;2022-08-19T09:57:36;7.10;;;2.42;;
51382;SDS011;37475;43.358;1.248;2022-08-19T10:00:03;5.68;;;2.20;;
51382;SDS011;37475;43.358;1.248;2022-08-19T10:02:32;6.20;;;2.15;;
51382;SDS011;37475;43.358;1.248;2022-08-19T10:04:58;7.15;;;2.38;;
51382;SDS011;37475;43.358;1.248;2022-08-19T10:07:42;4.18;;;2.03;;
51382;SDS011;37475;43.358;1.248;2022-08-19T10:10:08;6.43;;;2.13;;
51382;SDS011;37475;43.358;1.248;2022-08-19T10:12:35;5.70;;;2.15;;
51382;SDS011;37475;43.358;1.248;2022-08-19T10:15:01;4.05;;;1.90;;
51382;SDS011;37475;43.358;1.248;2022-08-19T10:17:29;6.93;;;2.10;;
51382;SDS011;37475;43.358;1.248;2022-08-19T10:19:55;4.72;;;1.90;;
51382;SDS011;37475;43.358;1.248;2022-08-19T10:22:21;3.40;;;1.85;;
51382;SDS011;37475;43.358;1.248;2022-08-19T10:24:47;7.30;;;2.28;;
51382;SDS011;37475;43.358;1.248;2022-08-19T10:27:14;7.25;;;2.13;;
51382;SDS011;37475;43.358;1.248;2022-08-19T10:29:40;5.25;;;1.98;;
51382;SDS011;37475;43.358;1.248;2022-08-19T10:32:07;6.15;;;1.98;;
51382;SDS011;37475;43.358;1.248;2022-08-19T10:34:34;6.50;;;2.03;;
51382;SDS011;37475;43.358;1.248;2022-08-19T10:37:03;4.35;;;2.03;;
51382;SDS011;37475;43.358;1.248;2022-08-19T10:39:31;7.03;;;1.77;;
51382;SDS011;37475;43.358;1.248;2022-08-19T10:42:03;4.82;;;1.85;;
51382;SDS011;37475;43.358;1.248;2022-08-19T10:44:35;4.80;;;2.10;;
51382;SDS011;37475;43.358;1.248;2022-08-19T10:47:01;5.07;;;1.80;;
51382;SDS011;37475;43.358;1.248;2022-08-19T10:49:29;6.07;;;2.03;;
51382;SDS011;37475;43.358;1.248;2022-08-19T10:51:55;6.00;;;2.03;;
51382;SDS011;37475;43.358;1.248;2022-08-19T10:54:40;5.15;;;1.85;;
51382;SDS011;37475;43.358;1.248;2022-08-19T10:57:24;7.53;;;2.40;;
51382;SDS011;37475;43.358;1.248;2022-08-19T10:59:54;5.80;;;1.95;;
51382;SDS011;37475;43.358;1.248;2022-08-19T11:02:21;5.15;;;2.22;;
51382;SDS011;37475;43.358;1.248;2022-08-19T11:04:47;5.35;;;1.65;;
51382;SDS011;37475;43.358;1.248;2022-08-19T11:07:15;6.90;;;2.13;;
51382;SDS011;37475;43.358;1.248;2022-08-19T11:09:43;4.75;;;1.73;;
51382;SDS011;37475;43.358;1.248;2022-08-19T11:12:09;4.28;;;2.00;;
51382;SDS011;37475;43.358;1.248;2022-08-19T11:14:35;5.53;;;2.00;;
51382;SDS011;37475;43.358;1.248;2022-08-19T11:17:02;5.38;;;1.80;;
51382;SDS011;37475;43.358;1.248;2022-08-19T11:19:30;3.65;;;1.60;;
51382;SDS011;37475;43.358;1.248;2022-08-19T11:21:56;3.67;;;1.70;;
51382;SDS011;37475;43.358;1.248;2022-08-19T11:24:23;4.22;;;1.75;;
51382;SDS011;37475;43.358;1.248;2022-08-19T11:26:53;4.93;;;2.10;;
51382;SDS011;37475;43.358;1.248;2022-08-19T11:29:27;4.80;;;1.63;;
51382;SDS011;37475;43.358;1.248;2022-08-19T11:31:54;4.10;;;1.70;;
51382;SDS011;37475;43.358;1.248;2022-08-19T11:34:21;3.25;;;1.92;;
51382;SDS011;37475;43.358;1.248;2022-08-19T11:36:52;4.22;;;1.80;;
51382;SDS011;37475;43.358;1.248;2022-08-19T11:39:22;5.97;;;1.80;;
51382;SDS011;37475;43.358;1.248;2022-08-19T11:41:50;3.20;;;1.42;;
51382;SDS011;37475;43.358;1.248;2022-08-19T11:44:16;3.55;;;1.55;;
51382;SDS011;37475;43.358;1.248;2022-08-19T11:46:42;5.75;;;1.80;;
51382;SDS011;37475;43.358;1.248;2022-08-19T11:49:11;5.15;;;2.00;;
51382;SDS011;37475;43.358;1.248;2022-08-19T11:51:39;5.07;;;1.70;;
51382;SDS011;37475;43.358;1.248;2022-08-19T11:54:08;4.38;;;1.83;;
51382;SDS011;37475;43.358;1.248;2022-08-19T11:56:36;6.47;;;2.03;;
51382;SDS011;37475;43.358;1.248;2022-08-19T11:59:02;3.75;;;1.52;;
51382;SDS011;37475;43.358;1.248;2022-08-19T12:01:28;4.30;;;1.83;;
51382;SDS011;37475;43.358;1.248;2022-08-19T12:03:55;3.80;;;1.40;;
51382;SDS011;37475;43.358;1.248;2022-08-19T12:06:26;5.25;;;1.35;;
51382;SDS011;37475;43.358;1.248;2022-08-19T12:08:56;4.80;;;1.50;;
51382;SDS011;37475;43.358;1.248;2022-08-19T12:11:25;3.90;;;2.00;;
51382;SDS011;37475;43.358;1.248;2022-08-19T12:13:52;5.63;;;2.13;;
51382;SDS011;37475;43.358;1.248;2022-08-19T12:16:28;3.38;;;1.80;;
51382;SDS011;37475;43.358;1.248;2022-08-19T12:18:56;5.82;;;1.80;;
51382;SDS011;37475;43.358;1.248;2022-08-19T12:21:28;4.10;;;1.90;;
51382;SDS011;37475;43.358;1.248;2022-08-19T12:23:56;4.90;;;1.85;;
51382;SDS011;37475;43.358;1.248;2022-08-19T12:26:24;6.05;;;1.88;;
51382;SDS011;37475;43.358;1.248;2022-08-19T12:28:51;3.10;;;1.70;;
51382;SDS011;37475;43.358;1.248;2022-08-19T12:31:17;3.78;;;1.67;;
51382;SDS011;37475;43.358;1.248;2022-08-19T12:33:44;7.90;;;2.17;;
51382;SDS011;37475;43.358;1.248;2022-08-19T12:36:12;3.92;;;1.80;;
51382;SDS011;37475;43.358;1.248;2022-08-19T12:38:40;5.20;;;1.70;;
51382;SDS011;37475;43.358;1.248;2022-08-19T12:41:09;3.95;;;1.88;;
51382;SDS011;37475;43.358;1.248;2022-08-19T12:43:39;3.75;;;1.95;;
51382;SDS011;37475;43.358;1.248;2022-08-19T12:46:06;3.90;;;1.48;;
51382;SDS011;37475;43.358;1.248;2022-08-19T12:48:33;3.38;;;1.50;;
51382;SDS011;37475;43.358;1.248;2022-08-19T12:50:59;3.78;;;1.70;;
51382;SDS011;37475;43.358;1.248;2022-08-19T12:53:30;4.75;;;2.00;;
51382;SDS011;37475;43.358;1.248;2022-08-19T12:55:57;7.20;;;1.80;;
51382;SDS011;37475;43.358;1.248;2022-08-19T12:58:24;5.10;;;1.60;;
51382;SDS011;37475;43.358;1.248;2022-08-19T13:00:51;3.75;;;1.65;;
51382;SDS011;37475;43.358;1.248;2022-08-19T13:03:17;5.53;;;1.40;;
51382;SDS011;37475;43.358;1.248;2022-08-19T13:05:43;5.03;;;1.67;;
51382;SDS011;37475;43.358;1.248;2022-08-19T13:08:09;3.83;;;1.50;;
51382;SDS011;37475;43.358;1.248;2022-08-19T13:10:36;3.10;;;1.50;;
51382;SDS011;37475;43.358;1.248;2022-08-19T13:13:04;5.28;;;1.70;;
51382;SDS011;37475;43.358;1.248;2022-08-19T13:15:35;3.67;;;1.45;;
51382;SDS011;37475;43.358;1.248;2022-08-19T13:18:05;3.08;;;1.50;;
51382;SDS011;37475;43.358;1.248;2022-08-19T13:20:34;5.50;;;1.50;;
51382;SDS011;37475;43.358;1.248;2022-08-19T13:23:02;3.25;;;1.38;;
51382;SDS011;37475;43.358;1.248;2022-08-19T13:25:29;3.80;;;1.60;;
51382;SDS011;37475;43.358;1.248;2022-08-19T13:27:55;5.03;;;1.80;;
51382;SDS011;37475;43.358;1.248;2022-08-19T13:30:21;3.25;;;1.70;;
51382;SDS011;37475;43.358;1.248;2022-08-19T13:33:06;5.28;;;1.60;;
51382;SDS011;37475;43.358;1.248;2022-08-19T13:35:47;3.55;;;1.55;;
51382;SDS011;37475;43.358;1.248;2022-08-19T13:38:21;4.70;;;1.75;;
51382;SDS011;37475;43.358;1.248;2022-08-19T13:40:48;3.90;;;1.80;;
51382;SDS011;37475;43.358;1.248;2022-08-19T13:43:17;3.78;;;1.30;;
51382;SDS011;37475;43.358;1.248;2022-08-19T13:45:45;4.40;;;1.60;;
51382;SDS011;37475;43.358;1.248;2022-08-19T13:48:10;4.10;;;1.60;;
51382;SDS011;37475;43.358;1.248;2022-08-19T13:50:41;5.35;;;2.00;;
51382;SDS011;37475;43.358;1.248;2022-08-19T13:53:10;3.90;;;1.50;;
51382;SDS011;37475;43.358;1.248;2022-08-19T13:55:40;3.78;;;1.50;;
51382;SDS011;37475;43.358;1.248;2022-08-19T13:58:08;3.75;;;1.60;;
51382;SDS011;37475;43.358;1.248;2022-08-19T14:00:36;4.22;;;1.58;;
51382;SDS011;37475;43.358;1.248;2022-08-19T14:03:06;3.63;;;1.40;;
51382;SDS011;37475;43.358;1.248;2022-08-19T14:05:32;4.03;;;1.40;;
51382;SDS011;37475;43.358;1.248;2022-08-19T14:07:59;3.17;;;1.60;;
51382;SDS011;37475;43.358;1.248;2022-08-19T14:10:25;4.78;;;1.65;;
51382;SDS011;37475;43.358;1.248;2022-08-19T14:12:54;3.38;;;1.38;;
51382;SDS011;37475;43.358;1.248;2022-08-19T14:15:23;2.67;;;1.40;;
51382;SDS011;37475;43.358;1.248;2022-08-19T14:17:49;2.92;;;1.55;;
51382;SDS011;37475;43.358;1.248;2022-08-19T14:20:16;4.38;;;1.67;;
51382;SDS011;37475;43.358;1.248;2022-08-19T14:22:42;4.97;;;1.60;;
51382;SDS011;37475;43.358;1.248;2022-08-19T14:25:12;6.47;;;1.60;;
51382;SDS011;37475;43.358;1.248;2022-08-19T14:27:42;7.07;;;1.70;;
51382;SDS011;37475;43.358;1.248;2022-08-19T14:30:09;4.07;;;1.73;;
51382;SDS011;37475;43.358;1.248;2022-08-19T14:32:39;3.67;;;1.42;;
51382;SDS011;37475;43.358;1.248;2022-08-19T14:35:05;4.40;;;1.50;;
51382;SDS011;37475;43.358;1.248;2022-08-19T14:37:35;5.00;;;1.52;;
51382;SDS011;37475;43.358;1.248;2022-08-19T14:40:02;4.32;;;1.75;;
51382;SDS011;37475;43.358;1.248;2022-08-19T14:42:29;3.45;;;1.58;;
51382;SDS011;37475;43.358;1.248;2022-08-19T14:44:58;3.72;;;1.52;;
51382;SDS011;37475;43.358;1.248;2022-08-19T14:47:25;3.35;;;1.40;;
51382;SDS011;37475;43.358;1.248;2022-08-19T14:49:52;3.13;;;1.40;;
51382;SDS011;37475;43.358;1.248;2022-08-19T14:52:18;4.05;;;1.92;;
51382;SDS011;37475;43.358;1.248;2022-08-19T14:54:44;5.03;;;1.73;;
51382;SDS011;37475;43.358;1.248;2022-08-19T14:57:14;3.85;;;1.60;;
51382;SDS011;37475;43.358;1.248;2022-08-19T14:59:41;3.60;;;1.67;;
51382;SDS011;37475;43.358;1.248;2022-08-19T15:02:08;4.05;;;1.77;;
51382;SDS011;37475;43.358;1.248;2022-08-19T15:04:34;3.72;;;1.60;;